sensor_id;sensor_type;location;lat;lon;timestamp;pressure;altitude;pressure_sealevel;temperature;humidity
4024;BME280;2026;51.002;13.668;2022-09-21T00:01:37;99860.84;;;7.76;83.14
4024;BME280;2026;51.002;13.668;2022-09-21T00:06:40;99862.94;;;7.66;84.35
4024;BME280;2026;51.002;13.668;2022-09-21T00:11:44;99863.03;;;7.94;82.85
4024;BME280;2026;51.002;13.668;2022-09-21T00:16:47;99863.22;;;7.93;83.26
4024;BME280;2026;51.002;13.668;2022-09-21T00:21:53;99858.34;;;8.11;82.96
4024;BME280;2026;51.002;13.668;2022-09-21T00:26:58;99860.47;;;8.23;82.75
4024;BME280;2026;51.002;13.668;2022-09-21T00:32:01;99868.38;;;8.08;83.25
4024;BME280;2026;51.002;13.668;2022-09-21T00:37:04;99872.00;;;8.07;83.50
4024;BME280;2026;51.002;13.668;2022-09-21T00:42:08;99862.72;;;8.04;83.22
4024;BME280;2026;51.002;13.668;2022-09-21T00:47:14;99863.72;;;8.03;82.14
4024;BME280;2026;51.002;13.668;2022-09-21T00:52:18;99861.09;;;8.03;81.94
4024;BME280;2026;51.002;13.668;2022-09-21T00:57:26;99868.56;;;8.06;80.12
4024;BME280;2026;51.002;13.668;2022-09-21T01:02:31;99866.50;;;8.01;80.69
4024;BME280;2026;51.002;13.668;2022-09-21T01:07:41;99871.66;;;7.88;81.84
4024;BME280;2026;51.002;13.668;2022-09-21T01:12:59;99873.06;;;7.90;81.80
4024;BME280;2026;51.002;13.668;2022-09-21T01:18:11;99876.19;;;8.01;80.48
4024;BME280;2026;51.002;13.668;2022-09-21T01:23:35;99878.19;;;7.99;80.81
4024;BME280;2026;51.002;13.668;2022-09-21T01:34:27;99880.44;;;8.02;80.46
4024;BME280;2026;51.002;13.668;2022-09-21T01:39:33;99884.19;;;7.93;80.83
4024;BME280;2026;51.002;13.668;2022-09-21T01:44:39;99884.91;;;7.86;81.20
4024;BME280;2026;51.002;13.668;2022-09-21T01:49:46;99890.59;;;7.90;80.74
4024;BME280;2026;51.002;13.668;2022-09-21T01:54:55;99895.66;;;7.91;80.38
4024;BME280;2026;51.002;13.668;2022-09-21T02:00:04;99898.00;;;7.86;80.87
4024;BME280;2026;51.002;13.668;2022-09-21T02:05:28;99894.00;;;7.90;80.43
4024;BME280;2026;51.002;13.668;2022-09-21T02:10:35;99894.78;;;7.84;81.17
4024;BME280;2026;51.002;13.668;2022-09-21T02:15:50;99893.16;;;7.83;81.36
4024;BME280;2026;51.002;13.668;2022-09-21T02:21:02;99896.69;;;7.75;81.88
4024;BME280;2026;51.002;13.668;2022-09-21T02:26:11;99898.41;;;7.83;81.00
4024;BME280;2026;51.002;13.668;2022-09-21T02:31:23;99901.25;;;7.88;80.74
4024;BME280;2026;51.002;13.668;2022-09-21T02:36:31;99905.25;;;7.84;81.18
4024;BME280;2026;51.002;13.668;2022-09-21T02:41:40;99912.47;;;7.82;82.14
4024;BME280;2026;51.002;13.668;2022-09-21T02:46:52;99908.50;;;7.86;81.96
4024;BME280;2026;51.002;13.668;2022-09-21T02:51:58;99910.13;;;7.87;81.84
4024;BME280;2026;51.002;13.668;2022-09-21T02:57:03;99912.22;;;7.77;81.93
4024;BME280;2026;51.002;13.668;2022-09-21T03:02:10;99930.34;;;7.78;81.25
4024;BME280;2026;51.002;13.668;2022-09-21T03:07:14;99935.81;;;7.47;82.93
4024;BME280;2026;51.002;13.668;2022-09-21T03:12:18;99933.63;;;7.66;81.83
4024;BME280;2026;51.002;13.668;2022-09-21T03:17:22;99937.69;;;7.68;81.15
4024;BME280;2026;51.002;13.668;2022-09-21T03:22:25;99939.16;;;7.71;81.08
4024;BME280;2026;51.002;13.668;2022-09-21T03:27:28;99937.69;;;7.68;81.46
4024;BME280;2026;51.002;13.668;2022-09-21T03:32:32;99926.81;;;7.86;80.88
4024;BME280;2026;51.002;13.668;2022-09-21T03:37:35;99935.41;;;7.80;80.53
4024;BME280;2026;51.002;13.668;2022-09-21T03:42:42;99930.66;;;7.69;80.74
4024;BME280;2026;51.002;13.668;2022-09-21T03:47:47;99935.91;;;7.69;80.75
4024;BME280;2026;51.002;13.668;2022-09-21T03:52:50;99930.66;;;7.69;80.00
4024;BME280;2026;51.002;13.668;2022-09-21T03:57:53;99938.69;;;7.67;80.56
4024;BME280;2026;51.002;13.668;2022-09-21T04:02:58;99940.16;;;7.70;80.27
4024;BME280;2026;51.002;13.668;2022-09-21T04:08:02;99937.81;;;7.60;80.78
4024;BME280;2026;51.002;13.668;2022-09-21T04:13:05;99948.28;;;7.45;81.05
4024;BME280;2026;51.002;13.668;2022-09-21T04:18:09;99947.72;;;7.49;81.53
4024;BME280;2026;51.002;13.668;2022-09-21T04:23:14;99951.34;;;7.63;81.63
4024;BME280;2026;51.002;13.668;2022-09-21T04:28:17;99951.69;;;7.75;81.12
4024;BME280;2026;51.002;13.668;2022-09-21T04:33:21;99951.25;;;7.72;81.14
4024;BME280;2026;51.002;13.668;2022-09-21T04:38:24;99957.47;;;7.71;80.68
4024;BME280;2026;51.002;13.668;2022-09-21T04:43:27;99958.03;;;7.66;80.30
4024;BME280;2026;51.002;13.668;2022-09-21T04:48:32;99961.38;;;7.60;80.44
4024;BME280;2026;51.002;13.668;2022-09-21T04:53:37;99955.75;;;7.48;80.52
4024;BME280;2026;51.002;13.668;2022-09-21T04:58:40;99966.97;;;7.57;80.55
4024;BME280;2026;51.002;13.668;2022-09-21T05:03:44;99971.91;;;7.67;80.33
4024;BME280;2026;51.002;13.668;2022-09-21T05:08:47;99980.25;;;7.55;80.73
4024;BME280;2026;51.002;13.668;2022-09-21T05:14:08;99980.63;;;7.52;81.08
4024;BME280;2026;51.002;13.668;2022-09-21T05:19:13;99989.09;;;7.54;81.23
4024;BME280;2026;51.002;13.668;2022-09-21T05:24:16;99991.63;;;7.62;80.50
4024;BME280;2026;51.002;13.668;2022-09-21T05:29:20;100000.81;;;7.58;80.59
4024;BME280;2026;51.002;13.668;2022-09-21T05:34:35;100009.94;;;7.62;80.98
4024;BME280;2026;51.002;13.668;2022-09-21T05:39:42;100012.75;;;7.61;81.33
4024;BME280;2026;51.002;13.668;2022-09-21T05:44:46;100017.09;;;7.69;81.50
4024;BME280;2026;51.002;13.668;2022-09-21T05:49:59;100023.22;;;7.76;80.89
4024;BME280;2026;51.002;13.668;2022-09-21T05:55:23;100026.28;;;7.80;80.56
4024;BME280;2026;51.002;13.668;2022-09-21T06:00:36;100029.25;;;7.76;80.67
4024;BME280;2026;51.002;13.668;2022-09-21T06:05:42;100029.34;;;7.83;81.45
4024;BME280;2026;51.002;13.668;2022-09-21T06:10:45;100039.25;;;8.03;80.18
4024;BME280;2026;51.002;13.668;2022-09-21T06:15:48;100031.00;;;8.21;79.63
4024;BME280;2026;51.002;13.668;2022-09-21T06:20:53;100028.19;;;8.23;79.90
4024;BME280;2026;51.002;13.668;2022-09-21T06:25:56;100027.88;;;8.32;78.62
4024;BME280;2026;51.002;13.668;2022-09-21T06:30:59;100039.56;;;8.30;79.33
4024;BME280;2026;51.002;13.668;2022-09-21T06:36:04;100035.94;;;8.53;78.36
4024;BME280;2026;51.002;13.668;2022-09-21T06:41:07;100031.22;;;8.63;78.95
4024;BME280;2026;51.002;13.668;2022-09-21T06:46:10;100036.81;;;8.82;77.45
4024;BME280;2026;51.002;13.668;2022-09-21T06:51:14;100038.78;;;8.73;77.69
4024;BME280;2026;51.002;13.668;2022-09-21T06:56:17;100037.69;;;8.89;77.45
4024;BME280;2026;51.002;13.668;2022-09-21T07:01:20;100042.34;;;9.15;76.69
4024;BME280;2026;51.002;13.668;2022-09-21T07:06:25;100045.50;;;9.33;76.54
4024;BME280;2026;51.002;13.668;2022-09-21T07:11:30;100046.28;;;9.55;75.82
4024;BME280;2026;51.002;13.668;2022-09-21T07:16:33;100046.28;;;9.62;75.90
4024;BME280;2026;51.002;13.668;2022-09-21T07:21:38;100052.47;;;9.76;75.12
4024;BME280;2026;51.002;13.668;2022-09-21T07:26:40;100059.59;;;9.89;74.80
4024;BME280;2026;51.002;13.668;2022-09-21T07:31:43;100065.16;;;10.21;74.55
4024;BME280;2026;51.002;13.668;2022-09-21T07:36:48;100060.50;;;10.16;73.32
4024;BME280;2026;51.002;13.668;2022-09-21T07:41:51;100068.22;;;10.24;73.06
4024;BME280;2026;51.002;13.668;2022-09-21T07:46:54;100069.06;;;10.38;72.40
4024;BME280;2026;51.002;13.668;2022-09-21T07:51:58;100070.94;;;10.65;73.52
4024;BME280;2026;51.002;13.668;2022-09-21T07:57:07;100078.69;;;10.80;72.00
4024;BME280;2026;51.002;13.668;2022-09-21T08:02:27;100075.03;;;11.01;72.47
4024;BME280;2026;51.002;13.668;2022-09-21T08:07:31;100072.56;;;11.60;71.55
4024;BME280;2026;51.002;13.668;2022-09-21T08:12:35;100072.44;;;11.22;70.79
4024;BME280;2026;51.002;13.668;2022-09-21T08:17:38;100069.16;;;11.46;70.31
4024;BME280;2026;51.002;13.668;2022-09-21T08:22:43;100068.28;;;12.25;67.04
4024;BME280;2026;51.002;13.668;2022-09-21T08:27:46;100072.94;;;11.78;70.96
4024;BME280;2026;51.002;13.668;2022-09-21T08:32:53;100075.44;;;11.45;68.20
4024;BME280;2026;51.002;13.668;2022-09-21T08:37:57;100080.25;;;11.75;70.18
4024;BME280;2026;51.002;13.668;2022-09-21T08:43:03;100077.19;;;12.31;68.93
4024;BME280;2026;51.002;13.668;2022-09-21T08:48:14;100075.19;;;12.97;66.39
4024;BME280;2026;51.002;13.668;2022-09-21T08:53:27;100071.69;;;13.66;64.98
4024;BME280;2026;51.002;13.668;2022-09-21T08:58:32;100080.25;;;14.67;62.76
4024;BME280;2026;51.002;13.668;2022-09-21T09:03:44;100079.06;;;13.83;63.91
4024;BME280;2026;51.002;13.668;2022-09-21T09:09:25;100083.00;;;13.55;63.90
4024;BME280;2026;51.002;13.668;2022-09-21T09:14:45;100078.72;;;13.98;63.43
4024;BME280;2026;51.002;13.668;2022-09-21T09:19:57;100081.13;;;14.00;63.17
4024;BME280;2026;51.002;13.668;2022-09-21T09:25:11;100080.66;;;14.21;63.48
4024;BME280;2026;51.002;13.668;2022-09-21T09:30:18;100075.41;;;14.03;61.62
4024;BME280;2026;51.002;13.668;2022-09-21T09:35:26;100077.06;;;13.60;62.83
4024;BME280;2026;51.002;13.668;2022-09-21T09:40:46;100070.84;;;12.78;63.07
4024;BME280;2026;51.002;13.668;2022-09-21T09:45:59;100071.34;;;12.68;63.85
4024;BME280;2026;51.002;13.668;2022-09-21T09:51:08;100082.56;;;12.89;64.36
4024;BME280;2026;51.002;13.668;2022-09-21T09:56:14;100066.63;;;13.46;62.26
4024;BME280;2026;51.002;13.668;2022-09-21T10:01:36;100071.84;;;13.53;63.09
4024;BME280;2026;51.002;13.668;2022-09-21T10:06:40;100072.00;;;12.89;62.85
4024;BME280;2026;51.002;13.668;2022-09-21T10:11:49;100070.78;;;11.54;67.96
4024;BME280;2026;51.002;13.668;2022-09-21T10:16:55;100070.06;;;12.77;66.19
4024;BME280;2026;51.002;13.668;2022-09-21T10:22:01;100072.44;;;12.85;65.17
4024;BME280;2026;51.002;13.668;2022-09-21T10:27:12;100067.75;;;11.24;67.48
4024;BME280;2026;51.002;13.668;2022-09-21T10:32:22;100053.78;;;13.31;64.22
4024;BME280;2026;51.002;13.668;2022-09-21T10:37:26;100054.88;;;13.61;64.39
4024;BME280;2026;51.002;13.668;2022-09-21T10:42:35;100053.28;;;13.78;60.17
4024;BME280;2026;51.002;13.668;2022-09-21T10:47:41;100061.34;;;12.38;65.21
4024;BME280;2026;51.002;13.668;2022-09-21T10:52:45;100058.28;;;11.95;65.21
4024;BME280;2026;51.002;13.668;2022-09-21T10:57:51;100052.56;;;11.32;66.48
4024;BME280;2026;51.002;13.668;2022-09-21T11:02:54;100055.75;;;11.61;68.41
4024;BME280;2026;51.002;13.668;2022-09-21T11:08:01;100050.34;;;12.80;63.96
4024;BME280;2026;51.002;13.668;2022-09-21T11:13:28;100045.59;;;12.89;63.48
4024;BME280;2026;51.002;13.668;2022-09-21T11:18:41;100047.03;;;12.59;63.67
4024;BME280;2026;51.002;13.668;2022-09-21T11:23:54;100048.00;;;12.26;65.71
4024;BME280;2026;51.002;13.668;2022-09-21T11:29:09;100033.28;;;14.20;60.83
4024;BME280;2026;51.002;13.668;2022-09-21T11:34:35;100023.72;;;14.31;59.10
4024;BME280;2026;51.002;13.668;2022-09-21T11:39:51;100035.00;;;13.39;62.32
4024;BME280;2026;51.002;13.668;2022-09-21T11:45:03;100024.56;;;13.63;60.47
4024;BME280;2026;51.002;13.668;2022-09-21T11:50:23;100029.00;;;13.25;62.30
4024;BME280;2026;51.002;13.668;2022-09-21T11:55:42;100009.03;;;15.37;60.00
4024;BME280;2026;51.002;13.668;2022-09-21T12:00:57;100015.13;;;15.14;57.38
4024;BME280;2026;51.002;13.668;2022-09-21T12:06:24;100019.44;;;12.55;59.48
4024;BME280;2026;51.002;13.668;2022-09-21T12:11:36;100009.22;;;13.53;58.36
4024;BME280;2026;51.002;13.668;2022-09-21T12:16:47;100008.47;;;13.65;57.67
4024;BME280;2026;51.002;13.668;2022-09-21T12:21:54;100005.19;;;13.51;57.26
4024;BME280;2026;51.002;13.668;2022-09-21T12:27:07;100002.38;;;13.83;59.20
4024;BME280;2026;51.002;13.668;2022-09-21T12:32:17;99989.81;;;15.18;56.42
4024;BME280;2026;51.002;13.668;2022-09-21T12:37:28;99993.09;;;13.92;58.89
4024;BME280;2026;51.002;13.668;2022-09-21T12:42:37;99997.25;;;13.88;58.08
4024;BME280;2026;51.002;13.668;2022-09-21T12:47:52;100000.47;;;13.90;55.92
4024;BME280;2026;51.002;13.668;2022-09-21T12:52:59;99988.97;;;13.66;55.63
4024;BME280;2026;51.002;13.668;2022-09-21T12:58:07;99994.47;;;13.64;55.42
4024;BME280;2026;51.002;13.668;2022-09-21T13:03:24;99986.97;;;12.80;59.50
4024;BME280;2026;51.002;13.668;2022-09-21T13:08:34;99982.78;;;13.16;59.15
4024;BME280;2026;51.002;13.668;2022-09-21T13:13:44;99986.69;;;13.70;60.10
4024;BME280;2026;51.002;13.668;2022-09-21T13:18:56;99982.25;;;14.01;57.52
4024;BME280;2026;51.002;13.668;2022-09-21T13:24:01;99989.09;;;12.90;61.75
4024;BME280;2026;51.002;13.668;2022-09-21T13:29:27;99994.38;;;12.90;66.42
4024;BME280;2026;51.002;13.668;2022-09-21T13:34:34;99993.44;;;12.58;67.43
4024;BME280;2026;51.002;13.668;2022-09-21T13:39:41;99981.72;;;12.98;65.84
4024;BME280;2026;51.002;13.668;2022-09-21T13:44:44;99966.94;;;14.69;61.20
4024;BME280;2026;51.002;13.668;2022-09-21T13:49:51;99971.78;;;14.48;58.62
4024;BME280;2026;51.002;13.668;2022-09-21T13:55:02;99969.84;;;14.56;57.48
4024;BME280;2026;51.002;13.668;2022-09-21T14:00:32;99960.63;;;14.82;56.14
4024;BME280;2026;51.002;13.668;2022-09-21T14:05:41;99949.13;;;15.00;54.61
4024;BME280;2026;51.002;13.668;2022-09-21T14:10:49;99948.25;;;15.48;54.44
4024;BME280;2026;51.002;13.668;2022-09-21T14:15:53;99956.84;;;13.81;57.80
4024;BME280;2026;51.002;13.668;2022-09-21T14:21:17;99953.50;;;13.55;59.85
4024;BME280;2026;51.002;13.668;2022-09-21T14:26:31;99938.63;;;14.58;55.96
4024;BME280;2026;51.002;13.668;2022-09-21T14:31:36;99946.56;;;14.34;54.64
4024;BME280;2026;51.002;13.668;2022-09-21T14:36:44;99943.44;;;14.37;55.17
4024;BME280;2026;51.002;13.668;2022-09-21T14:41:52;99947.69;;;13.09;59.96
4024;BME280;2026;51.002;13.668;2022-09-21T14:47:18;99959.72;;;12.61;62.26
4024;BME280;2026;51.002;13.668;2022-09-21T14:52:35;99950.81;;;12.55;61.58
4024;BME280;2026;51.002;13.668;2022-09-21T14:57:53;99953.72;;;12.47;60.43
4024;BME280;2026;51.002;13.668;2022-09-21T15:08:46;99953.59;;;12.35;61.39
4024;BME280;2026;51.002;13.668;2022-09-21T15:14:19;99945.34;;;12.56;60.27
4024;BME280;2026;51.002;13.668;2022-09-21T15:19:25;99939.56;;;12.92;59.55
4024;BME280;2026;51.002;13.668;2022-09-21T15:24:31;99930.75;;;13.54;58.65
4024;BME280;2026;51.002;13.668;2022-09-21T15:29:36;99933.81;;;13.51;58.25
4024;BME280;2026;51.002;13.668;2022-09-21T15:34:40;99937.16;;;13.28;58.35
4024;BME280;2026;51.002;13.668;2022-09-21T15:39:44;99925.78;;;13.08;58.15
4024;BME280;2026;51.002;13.668;2022-09-21T15:44:49;99937.53;;;12.68;59.72
4024;BME280;2026;51.002;13.668;2022-09-21T15:49:55;99935.91;;;12.67;60.41
4024;BME280;2026;51.002;13.668;2022-09-21T15:55:07;99925.03;;;13.20;59.51
4024;BME280;2026;51.002;13.668;2022-09-21T16:00:22;99930.72;;;12.79;61.58
4024;BME280;2026;51.002;13.668;2022-09-21T16:05:26;99934.97;;;12.80;61.24
4024;BME280;2026;51.002;13.668;2022-09-21T16:10:39;99941.41;;;12.66;62.46
4024;BME280;2026;51.002;13.668;2022-09-21T16:15:58;99939.69;;;12.97;60.90
4024;BME280;2026;51.002;13.668;2022-09-21T16:21:09;99942.03;;;12.87;60.73
4024;BME280;2026;51.002;13.668;2022-09-21T16:26:23;99951.41;;;12.82;61.55
4024;BME280;2026;51.002;13.668;2022-09-21T16:31:31;99943.59;;;12.43;62.30
4024;BME280;2026;51.002;13.668;2022-09-21T16:36:39;99940.78;;;12.45;63.91
4024;BME280;2026;51.002;13.668;2022-09-21T16:41:50;99938.38;;;12.37;64.92
4024;BME280;2026;51.002;13.668;2022-09-21T16:46:57;99946.91;;;12.32;65.27
4024;BME280;2026;51.002;13.668;2022-09-21T16:52:01;99955.00;;;11.66;68.47
4024;BME280;2026;51.002;13.668;2022-09-21T16:57:05;99952.22;;;11.47;68.52
4024;BME280;2026;51.002;13.668;2022-09-21T17:02:09;99956.63;;;11.67;68.13
4024;BME280;2026;51.002;13.668;2022-09-21T17:07:15;99962.47;;;11.69;67.70
4024;BME280;2026;51.002;13.668;2022-09-21T17:12:20;99966.38;;;11.53;68.73
4024;BME280;2026;51.002;13.668;2022-09-21T17:17:24;99970.69;;;11.41;69.07
4024;BME280;2026;51.002;13.668;2022-09-21T17:22:27;99969.72;;;11.28;69.27
4024;BME280;2026;51.002;13.668;2022-09-21T17:27:33;99968.09;;;11.27;69.68
4024;BME280;2026;51.002;13.668;2022-09-21T17:32:36;99963.28;;;11.11;69.99
4024;BME280;2026;51.002;13.668;2022-09-21T17:37:39;99963.69;;;11.07;70.75
4024;BME280;2026;51.002;13.668;2022-09-21T17:42:44;99975.63;;;10.97;70.74
4024;BME280;2026;51.002;13.668;2022-09-21T17:47:49;99979.28;;;10.96;71.61
4024;BME280;2026;51.002;13.668;2022-09-21T17:52:53;99982.09;;;10.87;71.95
4024;BME280;2026;51.002;13.668;2022-09-21T17:58:24;99974.00;;;10.82;72.12
4024;BME280;2026;51.002;13.668;2022-09-21T18:03:35;99976.84;;;10.60;72.64
4024;BME280;2026;51.002;13.668;2022-09-21T18:08:42;99976.44;;;10.57;72.67
4024;BME280;2026;51.002;13.668;2022-09-21T18:13:53;99981.91;;;10.42;72.97
4024;BME280;2026;51.002;13.668;2022-09-21T18:19:11;99987.94;;;10.35;72.58
4024;BME280;2026;51.002;13.668;2022-09-21T18:24:25;99994.78;;;10.23;73.81
4024;BME280;2026;51.002;13.668;2022-09-21T18:29:33;99994.59;;;10.18;73.57
4024;BME280;2026;51.002;13.668;2022-09-21T18:40:35;100001.41;;;10.05;74.69
4024;BME280;2026;51.002;13.668;2022-09-21T18:45:42;100006.09;;;10.10;74.61
4024;BME280;2026;51.002;13.668;2022-09-21T18:50:51;100002.06;;;10.14;74.38
4024;BME280;2026;51.002;13.668;2022-09-21T18:55:59;100007.28;;;10.01;74.68
4024;BME280;2026;51.002;13.668;2022-09-21T19:01:04;100003.75;;;9.80;75.29
4024;BME280;2026;51.002;13.668;2022-09-21T19:06:29;100010.75;;;9.59;76.30
4024;BME280;2026;51.002;13.668;2022-09-21T19:11:39;99997.03;;;9.64;75.76
4024;BME280;2026;51.002;13.668;2022-09-21T19:16:58;99999.41;;;9.59;75.49
4024;BME280;2026;51.002;13.668;2022-09-21T19:22:12;99999.09;;;9.40;75.99
4024;BME280;2026;51.002;13.668;2022-09-21T19:27:26;99999.16;;;9.47;75.71
4024;BME280;2026;51.002;13.668;2022-09-21T19:32:37;100008.06;;;9.24;77.09
4024;BME280;2026;51.002;13.668;2022-09-21T19:37:41;99997.41;;;9.32;76.00
4024;BME280;2026;51.002;13.668;2022-09-21T19:43:00;100003.69;;;9.31;76.45
4024;BME280;2026;51.002;13.668;2022-09-21T19:48:11;100001.03;;;9.24;76.58
4024;BME280;2026;51.002;13.668;2022-09-21T19:53:15;100003.69;;;9.31;76.07
4024;BME280;2026;51.002;13.668;2022-09-21T19:58:36;99998.97;;;8.91;78.29
4024;BME280;2026;51.002;13.668;2022-09-21T20:03:58;99999.38;;;8.95;77.44
4024;BME280;2026;51.002;13.668;2022-09-21T20:09:07;100000.47;;;9.00;76.19
4024;BME280;2026;51.002;13.668;2022-09-21T20:14:21;99999.75;;;8.85;76.60
4024;BME280;2026;51.002;13.668;2022-09-21T20:19:41;99998.63;;;8.72;76.80
4024;BME280;2026;51.002;13.668;2022-09-21T20:24:53;99997.03;;;8.78;76.73
4024;BME280;2026;51.002;13.668;2022-09-21T20:29:58;99996.56;;;8.68;76.98
4024;BME280;2026;51.002;13.668;2022-09-21T20:35:09;99997.69;;;8.58;76.82
4024;BME280;2026;51.002;13.668;2022-09-21T20:40:16;99998.13;;;8.40;77.04
4024;BME280;2026;51.002;13.668;2022-09-21T20:45:21;99993.56;;;8.49;76.46
4024;BME280;2026;51.002;13.668;2022-09-21T20:50:25;99992.88;;;8.40;76.82
4024;BME280;2026;51.002;13.668;2022-09-21T20:55:31;99995.25;;;8.35;76.92
4024;BME280;2026;51.002;13.668;2022-09-21T21:00:33;99991.69;;;8.21;77.35
4024;BME280;2026;51.002;13.668;2022-09-21T21:05:38;99999.72;;;8.19;77.09
4024;BME280;2026;51.002;13.668;2022-09-21T21:10:44;99998.09;;;8.18;76.87
4024;BME280;2026;51.002;13.668;2022-09-21T21:15:51;99998.38;;;8.24;76.96
4024;BME280;2026;51.002;13.668;2022-09-21T21:20:59;99995.78;;;8.09;77.41
4024;BME280;2026;51.002;13.668;2022-09-21T21:26:03;99992.97;;;8.10;77.62
4024;BME280;2026;51.002;13.668;2022-09-21T21:31:06;99990.66;;;8.00;78.28
4024;BME280;2026;51.002;13.668;2022-09-21T21:36:10;99987.75;;;8.10;78.02
4024;BME280;2026;51.002;13.668;2022-09-21T21:41:15;99990.19;;;8.12;77.94
4024;BME280;2026;51.002;13.668;2022-09-21T21:46:18;99979.63;;;8.05;78.16
4024;BME280;2026;51.002;13.668;2022-09-21T21:51:22;99987.13;;;8.08;78.64
4024;BME280;2026;51.002;13.668;2022-09-21T21:56:25;99990.97;;;8.12;78.37
4024;BME280;2026;51.002;13.668;2022-09-21T22:01:28;99980.63;;;8.04;79.07
4024;BME280;2026;51.002;13.668;2022-09-21T22:06:34;99979.56;;;7.98;79.20
4024;BME280;2026;51.002;13.668;2022-09-21T22:11:39;99972.41;;;8.07;78.96
4024;BME280;2026;51.002;13.668;2022-09-21T22:16:42;99977.59;;;7.70;80.90
4024;BME280;2026;51.002;13.668;2022-09-21T22:21:46;99969.47;;;7.80;80.29
4024;BME280;2026;51.002;13.668;2022-09-21T22:26:54;99961.88;;;7.70;81.19
4024;BME280;2026;51.002;13.668;2022-09-21T22:31:57;99966.13;;;7.86;80.22
4024;BME280;2026;51.002;13.668;2022-09-21T22:37:02;99956.63;;;7.85;80.38
4024;BME280;2026;51.002;13.668;2022-09-21T22:42:05;99963.00;;;7.61;81.45
4024;BME280;2026;51.002;13.668;2022-09-21T22:47:08;99965.34;;;7.71;81.16
4024;BME280;2026;51.002;13.668;2022-09-21T22:52:12;99961.25;;;7.83;80.49
4024;BME280;2026;51.002;13.668;2022-09-21T22:57:15;99958.44;;;7.85;80.27
4024;BME280;2026;51.002;13.668;2022-09-21T23:02:18;99962.81;;;7.62;81.38
4024;BME280;2026;51.002;13.668;2022-09-21T23:07:22;99957.47;;;7.71;81.30
4024;BME280;2026;51.002;13.668;2022-09-21T23:12:25;99957.47;;;7.71;81.42
4024;BME280;2026;51.002;13.668;2022-09-21T23:17:28;99958.00;;;7.81;81.08
4024;BME280;2026;51.002;13.668;2022-09-21T23:22:33;99958.13;;;7.28;83.28
4024;BME280;2026;51.002;13.668;2022-09-21T23:27:36;99959.81;;;7.50;82.90
4024;BME280;2026;51.002;13.668;2022-09-21T23:32:39;99967.06;;;7.63;82.22
4024;BME280;2026;51.002;13.668;2022-09-21T23:37:44;99954.88;;;7.56;82.38
4024;BME280;2026;51.002;13.668;2022-09-21T23:42:46;99951.13;;;7.50;83.10
4024;BME280;2026;51.002;13.668;2022-09-21T23:47:49;99963.44;;;7.19;84.98
4024;BME280;2026;51.002;13.668;2022-09-21T23:52:54;99962.81;;;7.62;82.96
4024;BME280;2026;51.002;13.668;2022-09-21T23:57:57;99959.09;;;7.72;82.49
